createdAt,value
2019-02-20T00:00:02.267Z,6.32
2019-02-20T00:02:30.781Z,6.32
2019-02-20T00:04:59.234Z,6.28
2019-02-20T00:07:27.705Z,6.30
2019-02-20T00:09:56.179Z,6.31
2019-02-20T00:12:24.667Z,6.27
2019-02-20T00:14:54.636Z,6.32
2019-02-20T00:17:23.110Z,6.32
2019-02-20T00:19:51.582Z,6.35
2019-02-20T00:22:20.069Z,6.36
2019-02-20T00:24:48.620Z,6.35
2019-02-20T00:27:17.091Z,6.36
2019-02-20T00:29:45.553Z,6.36
2019-02-20T00:32:14.048Z,6.40
2019-02-20T00:34:42.522Z,6.38
2019-02-20T00:37:11.604Z,6.33
2019-02-20T00:39:40.082Z,6.39
2019-02-20T00:42:08.555Z,6.28
2019-02-20T00:44:44.391Z,6.28
2019-02-20T00:47:14.506Z,6.30
2019-02-20T00:49:43.347Z,6.27
2019-02-20T00:52:13.457Z,6.26
2019-02-20T00:54:42.014Z,6.32
2019-02-20T00:57:10.492Z,6.21
2019-02-20T00:59:39.064Z,6.23
2019-02-20T01:02:07.554Z,6.23
2019-02-20T01:04:36.038Z,6.21
2019-02-20T01:07:05.036Z,6.20
2019-02-20T01:09:33.512Z,6.25
2019-02-20T01:12:01.990Z,6.26
2019-02-20T01:14:30.515Z,6.27
2019-02-20T01:16:59.035Z,6.28
2019-02-20T01:19:27.518Z,6.26
2019-02-20T01:21:55.987Z,6.30
2019-02-20T01:24:24.454Z,6.32
2019-02-20T01:26:53.113Z,6.32
2019-02-20T01:29:21.591Z,6.35
2019-02-20T01:31:50.086Z,6.34
2019-02-20T01:34:18.564Z,6.30
2019-02-20T01:36:47.039Z,6.35
2019-02-20T01:39:15.522Z,6.31
2019-02-20T01:41:43.994Z,6.31
2019-02-20T01:44:12.461Z,6.34
2019-02-20T01:46:41.000Z,6.28
2019-02-20T01:49:09.476Z,6.32
2019-02-20T01:51:37.952Z,6.37
2019-02-20T01:54:06.452Z,6.32
2019-02-20T01:56:34.938Z,6.36
2019-02-20T01:59:03.404Z,6.32
2019-02-20T02:01:31.888Z,6.34
2019-02-20T02:04:01.160Z,6.28
2019-02-20T02:06:29.786Z,6.33
2019-02-20T02:08:59.657Z,6.35
2019-02-20T02:11:28.289Z,6.32
2019-02-20T02:13:56.771Z,6.32
2019-02-20T02:16:25.252Z,6.28
2019-02-20T02:18:53.744Z,6.31
2019-02-20T02:21:22.293Z,6.32
2019-02-20T02:23:50.803Z,6.31
2019-02-20T02:26:19.283Z,6.24
2019-02-20T02:28:47.745Z,6.26
2019-02-20T02:31:16.386Z,6.22
2019-02-20T02:33:44.860Z,6.22
2019-02-20T02:36:13.386Z,6.26
2019-02-20T02:38:41.873Z,6.21
2019-02-20T02:41:10.330Z,6.21
2019-02-20T02:43:38.812Z,5.94
2019-02-20T02:46:07.313Z,6.21
2019-02-20T02:48:35.773Z,6.16
2019-02-20T02:51:05.861Z,6.16
2019-02-20T02:53:34.343Z,6.16
2019-02-20T02:56:02.871Z,6.16
2019-02-20T02:58:31.432Z,6.13
2019-02-20T03:00:59.975Z,6.16
2019-02-20T03:03:28.553Z,6.16
2019-02-20T03:05:57.082Z,6.20
2019-02-20T03:08:25.680Z,6.12
2019-02-20T03:10:55.659Z,6.15
2019-02-20T03:13:24.129Z,6.15
2019-02-20T03:15:52.639Z,6.14
2019-02-20T03:18:21.095Z,6.13
2019-02-20T03:20:49.574Z,6.12
2019-02-20T03:23:18.144Z,6.12
2019-02-20T03:25:46.602Z,6.13
2019-02-20T03:28:15.162Z,6.07
2019-02-20T03:30:43.805Z,6.12
2019-02-20T03:33:12.516Z,6.11
2019-02-20T03:35:41.005Z,6.09
2019-02-20T03:38:09.496Z,6.09
2019-02-20T03:40:37.963Z,6.04
2019-02-20T03:43:06.561Z,6.01
2019-02-20T03:45:35.037Z,6.06
2019-02-20T03:48:03.574Z,6.11
2019-02-20T03:50:32.125Z,6.07
2019-02-20T03:53:00.600Z,6.11
2019-02-20T03:55:29.715Z,6.14
2019-02-20T03:57:58.244Z,6.06
2019-02-20T04:00:26.758Z,6.04
2019-02-20T04:02:55.222Z,5.98
2019-02-20T04:05:23.769Z,6.03
2019-02-20T04:07:52.239Z,6.05
2019-02-20T04:10:20.879Z,6.08
2019-02-20T04:12:49.378Z,6.06
2019-02-20T04:15:18.021Z,6.02
2019-02-20T04:17:46.493Z,6.05
2019-02-20T04:20:15.048Z,6.03
2019-02-20T04:22:43.552Z,6.08
2019-02-20T04:25:12.129Z,6.06
2019-02-20T04:27:40.664Z,6.08
2019-02-20T04:30:10.182Z,6.10
2019-02-20T04:32:38.664Z,6.04
2019-02-20T04:35:07.318Z,5.97
2019-02-20T04:37:35.802Z,5.97
2019-02-20T04:40:05.948Z,5.98
2019-02-20T04:42:34.589Z,5.94
2019-02-20T04:45:03.226Z,6.00
2019-02-20T04:47:33.125Z,5.93
2019-02-20T04:50:01.633Z,5.96
2019-02-20T04:52:30.109Z,5.96
2019-02-20T04:54:58.932Z,5.98
2019-02-20T04:57:27.485Z,5.73
2019-02-20T04:59:55.965Z,5.99
2019-02-20T05:02:24.512Z,6.01
2019-02-20T05:04:52.972Z,5.98
2019-02-20T05:07:21.478Z,5.94
2019-02-20T05:09:50.311Z,6.01
2019-02-20T05:12:18.853Z,6.00
2019-02-20T05:14:47.354Z,5.98
2019-02-20T05:17:15.819Z,6.00
2019-02-20T05:19:44.299Z,6.00
2019-02-20T05:22:12.807Z,5.94
2019-02-20T05:24:41.290Z,5.69
2019-02-20T05:27:29.093Z,5.93
2019-02-20T05:29:57.558Z,5.93
2019-02-20T05:32:26.053Z,5.93
2019-02-20T05:34:54.525Z,5.92
2019-02-20T05:37:23.003Z,5.91
2019-02-20T05:39:51.470Z,5.93
2019-02-20T05:42:19.943Z,5.94
2019-02-20T05:44:48.406Z,5.95
2019-02-20T05:47:16.865Z,5.95
2019-02-20T05:49:45.344Z,5.94
2019-02-20T05:52:13.841Z,5.99
2019-02-20T05:54:42.332Z,5.96
2019-02-20T05:57:10.847Z,5.90
2019-02-20T05:59:39.351Z,5.92
2019-02-20T06:02:07.848Z,5.94
2019-02-20T06:04:36.358Z,5.93
2019-02-20T06:07:04.943Z,5.96
2019-02-20T06:09:33.402Z,5.94
2019-02-20T06:12:01.880Z,5.94
2019-02-20T06:14:30.469Z,5.92
2019-02-20T06:16:58.933Z,5.89
2019-02-20T06:19:27.398Z,5.85
2019-02-20T06:21:55.958Z,5.84
2019-02-20T06:24:24.438Z,5.88
2019-02-20T06:26:53.123Z,5.85
2019-02-20T06:29:24.733Z,5.87
2019-02-20T06:31:53.192Z,5.90
2019-02-20T06:34:21.681Z,5.84
2019-02-20T06:36:50.134Z,5.85
2019-02-20T06:39:18.630Z,5.86
2019-02-20T06:41:47.093Z,5.85
2019-02-20T06:44:15.561Z,5.80
2019-02-20T06:46:44.048Z,5.81
2019-02-20T06:49:12.502Z,5.79
2019-02-20T06:51:41.660Z,5.78
2019-02-20T06:54:10.205Z,5.84
2019-02-20T06:56:38.666Z,5.83
2019-02-20T06:59:07.315Z,5.84
2019-02-20T07:01:35.793Z,5.82
2019-02-20T07:04:04.344Z,5.89
2019-02-20T07:06:35.852Z,5.90
2019-02-20T07:09:22.285Z,5.83
2019-02-20T07:12:17.366Z,5.87
2019-02-20T07:15:09.885Z,5.92
2019-02-20T07:18:05.293Z,5.94
2019-02-20T07:20:40.459Z,5.89
2019-02-20T07:23:32.660Z,5.87
2019-02-20T07:26:28.600Z,5.94
2019-02-20T07:29:33.814Z,5.92
2019-02-20T07:32:02.278Z,5.98
2019-02-20T07:34:32.302Z,6.01
2019-02-20T07:37:00.774Z,5.96
2019-02-20T07:39:29.242Z,5.97
2019-02-20T07:42:00.894Z,6.07
2019-02-20T07:44:29.351Z,6.04
2019-02-20T07:46:57.918Z,6.07
2019-02-20T07:49:26.406Z,6.07
2019-02-20T07:51:54.904Z,6.10
2019-02-20T07:54:24.314Z,6.15
2019-02-20T07:56:52.897Z,6.13
2019-02-20T07:59:21.486Z,6.19
2019-02-20T08:01:50.066Z,6.17
2019-02-20T08:04:19.234Z,6.23
2019-02-20T08:06:47.732Z,6.26
2019-02-20T08:09:16.237Z,6.34
2019-02-20T08:11:44.826Z,6.30
2019-02-20T08:14:13.287Z,6.33
2019-02-20T08:16:41.774Z,6.42
2019-02-20T08:19:10.246Z,6.40
2019-02-20T08:21:40.904Z,6.44
2019-02-20T08:24:09.355Z,6.50
2019-02-20T08:26:37.839Z,6.53
2019-02-20T08:29:06.391Z,6.52
2019-02-20T08:31:34.973Z,6.61
2019-02-20T08:34:03.432Z,6.55
2019-02-20T08:36:34.248Z,6.62
2019-02-20T08:39:04.380Z,6.69
2019-02-20T08:41:32.948Z,6.70
2019-02-20T08:44:01.426Z,6.81
2019-02-20T08:46:29.887Z,6.89
2019-02-20T08:48:58.439Z,7.05
2019-02-20T08:51:27.013Z,7.14
2019-02-20T08:53:55.509Z,7.30
2019-02-20T08:56:23.994Z,7.33
2019-02-20T08:58:52.457Z,7.40
2019-02-20T09:01:20.931Z,7.53
2019-02-20T09:03:49.428Z,7.58
2019-02-20T09:06:17.897Z,7.70
2019-02-20T09:08:46.459Z,7.78
2019-02-20T09:11:14.928Z,7.77
2019-02-20T09:13:43.408Z,7.72
2019-02-20T09:16:11.890Z,7.62
2019-02-20T09:18:40.367Z,7.67
2019-02-20T09:21:08.846Z,7.61
2019-02-20T09:23:37.386Z,7.62
2019-02-20T09:26:05.862Z,7.56
2019-02-20T09:28:34.365Z,7.56
2019-02-20T09:31:02.907Z,7.66
2019-02-20T09:33:31.439Z,7.63
2019-02-20T09:35:59.918Z,7.61
2019-02-20T09:39:28.966Z,7.54
2019-02-20T09:41:57.519Z,7.57
2019-02-20T09:44:25.999Z,7.62
2019-02-20T09:46:54.475Z,7.69
2019-02-20T09:49:22.955Z,7.76
2019-02-20T09:51:51.621Z,7.76
2019-02-20T09:54:20.078Z,7.71
2019-02-20T09:56:48.548Z,7.72
2019-02-20T09:59:17.064Z,7.77
2019-02-20T10:01:45.537Z,7.62
2019-02-20T10:04:14.017Z,7.73
2019-02-20T10:06:42.506Z,7.83
2019-02-20T10:09:10.971Z,7.89
2019-02-20T10:11:39.455Z,7.87
2019-02-20T10:14:07.987Z,7.86
2019-02-20T10:16:36.461Z,7.95
2019-02-20T10:19:05.035Z,8.00
2019-02-20T10:21:33.533Z,8.06
2019-02-20T10:24:02.007Z,8.10
2019-02-20T10:26:30.487Z,8.16
2019-02-20T10:28:58.959Z,8.27
2019-02-20T10:31:27.525Z,8.27
2019-02-20T10:33:56.273Z,8.33
2019-02-20T10:36:24.811Z,8.39
2019-02-20T10:38:53.289Z,8.37
2019-02-20T10:41:22.418Z,8.40
2019-02-20T10:43:50.927Z,8.36
2019-02-20T10:46:19.403Z,8.39
2019-02-20T10:48:47.888Z,8.46
2019-02-20T10:51:16.438Z,8.43
2019-02-20T10:53:44.922Z,8.37
2019-02-20T10:56:13.407Z,8.42
2019-02-20T10:58:41.884Z,8.44
2019-02-20T11:01:11.908Z,8.58
2019-02-20T11:03:40.466Z,8.66
2019-02-20T11:06:09.062Z,8.72
2019-02-20T11:08:37.560Z,8.68
2019-02-20T11:11:06.042Z,8.82
2019-02-20T11:13:34.525Z,8.93
2019-02-20T11:16:03.002Z,9.07
2019-02-20T11:18:31.494Z,9.15
2019-02-20T11:21:00.036Z,9.35
2019-02-20T11:23:28.527Z,9.58
2019-02-20T11:25:56.990Z,9.32
2019-02-20T11:28:27.172Z,9.26
2019-02-20T11:30:56.894Z,9.22
2019-02-20T11:33:25.340Z,9.25
2019-02-20T11:35:53.815Z,9.32
2019-02-20T11:38:22.346Z,9.43
2019-02-20T11:40:50.830Z,9.49
2019-02-20T11:43:21.181Z,9.47
2019-02-20T11:45:49.590Z,9.41
2019-02-20T11:49:09.600Z,9.45
2019-02-20T11:51:37.544Z,9.53
2019-02-20T11:54:06.029Z,9.49
2019-02-20T11:56:34.508Z,9.47
2019-02-20T11:59:02.974Z,9.41
2019-02-20T12:01:31.468Z,9.38
2019-02-20T12:03:59.945Z,9.54
2019-02-20T12:06:28.483Z,9.59
2019-02-20T12:08:56.942Z,9.55
2019-02-20T12:11:25.490Z,9.60
2019-02-20T12:13:53.965Z,9.58
2019-02-20T12:16:22.695Z,9.68
2019-02-20T12:18:51.235Z,9.65
2019-02-20T12:21:19.881Z,9.73
2019-02-20T12:23:48.352Z,9.69
2019-02-20T12:26:16.826Z,9.79
2019-02-20T12:28:47.189Z,9.68
2019-02-20T12:31:15.612Z,9.60
2019-02-20T12:33:44.071Z,9.66
2019-02-20T12:36:12.608Z,9.70
2019-02-20T12:38:41.236Z,9.80
2019-02-20T12:41:10.937Z,9.83
2019-02-20T12:43:39.679Z,9.82
2019-02-20T12:46:08.263Z,9.89
2019-02-20T12:48:36.755Z,9.91
2019-02-20T12:51:05.368Z,9.95
2019-02-20T12:53:33.852Z,9.90
2019-02-20T12:56:09.839Z,9.97
2019-02-20T12:58:32.725Z,10.06
2019-02-20T13:01:01.276Z,9.88
2019-02-20T13:03:29.833Z,9.79
2019-02-20T13:05:58.403Z,9.92
2019-02-20T13:08:26.903Z,9.90
2019-02-20T13:10:58.252Z,9.97
2019-02-20T13:13:26.820Z,9.79
2019-02-20T13:15:55.308Z,9.58
2019-02-20T13:18:23.919Z,9.52
2019-02-20T13:20:52.401Z,9.65
2019-02-20T13:23:20.875Z,9.69
2019-02-20T13:25:49.382Z,9.68
2019-02-20T13:28:17.859Z,9.64
2019-02-20T13:30:46.425Z,9.58
2019-02-20T13:33:14.879Z,9.68
2019-02-20T13:35:43.388Z,9.73
2019-02-20T13:38:11.851Z,9.75
2019-02-20T13:40:40.347Z,9.71
2019-02-20T13:43:08.902Z,9.70
2019-02-20T13:45:37.597Z,9.72
2019-02-20T13:51:47.079Z,9.76
2019-02-20T13:54:15.613Z,9.74
2019-02-20T13:56:44.178Z,9.70
2019-02-20T13:59:15.667Z,9.69
2019-02-20T14:01:45.634Z,9.79
2019-02-20T14:04:14.463Z,9.77
2019-02-20T14:06:42.942Z,9.78
2019-02-20T14:09:11.471Z,9.80
2019-02-20T14:11:40.041Z,9.54
2019-02-20T14:14:09.074Z,9.50
2019-02-20T14:16:37.661Z,9.51
2019-02-20T14:19:06.239Z,9.44
2019-02-20T14:21:34.908Z,9.52
2019-02-20T14:24:03.380Z,9.58
2019-02-20T14:26:31.852Z,9.57
2019-02-20T14:29:00.340Z,9.56
2019-02-20T14:31:28.897Z,9.59
2019-02-20T14:33:57.377Z,9.44
2019-02-20T14:36:25.848Z,9.42
2019-02-20T14:38:54.422Z,9.44
2019-02-20T14:41:22.921Z,9.44
2019-02-20T14:43:51.406Z,9.50
2019-02-20T14:46:19.952Z,9.53
2019-02-20T14:48:48.457Z,9.59
2019-02-20T14:51:16.935Z,9.61
2019-02-20T14:53:45.790Z,9.55
2019-02-20T14:56:14.303Z,9.40
2019-02-20T14:58:42.794Z,9.38
2019-02-20T15:01:13.105Z,9.38
2019-02-20T15:03:41.706Z,9.30
2019-02-20T15:06:10.247Z,9.24
2019-02-20T15:08:38.747Z,9.24
2019-02-20T15:11:07.479Z,9.25
2019-02-20T15:13:35.990Z,9.25
2019-02-20T15:16:04.610Z,9.20
2019-02-20T15:18:33.151Z,9.14
2019-02-20T15:21:02.781Z,9.07
2019-02-20T15:23:31.436Z,9.01
2019-02-20T15:26:00.270Z,9.02
2019-02-20T15:28:28.875Z,9.02
2019-02-20T15:30:57.372Z,9.03
2019-02-20T15:33:26.116Z,8.98
2019-02-20T15:35:54.599Z,8.88
2019-02-20T15:38:23.142Z,8.91
2019-02-20T15:40:51.653Z,8.83
2019-02-20T15:43:20.455Z,8.78
2019-02-20T15:45:48.943Z,8.79
2019-02-20T15:48:23.072Z,8.72
2019-02-20T15:50:47.692Z,8.68
2019-02-20T15:53:16.173Z,8.64
2019-02-20T15:55:44.834Z,8.66
2019-02-20T15:58:13.331Z,8.63
2019-02-20T16:00:41.818Z,8.62
2019-02-20T16:03:10.378Z,8.60
2019-02-20T16:05:38.928Z,8.56
2019-02-20T16:08:07.561Z,8.53
2019-02-20T16:10:36.102Z,8.48
2019-02-20T16:13:04.719Z,8.46
2019-02-20T16:15:34.343Z,8.45
2019-02-20T16:18:02.898Z,8.45
2019-02-20T16:20:31.450Z,8.47
2019-02-20T16:22:59.940Z,8.46
2019-02-20T16:25:28.485Z,8.45
2019-02-20T16:27:56.970Z,8.40
2019-02-20T16:30:25.605Z,8.39
2019-02-20T16:32:55.188Z,8.40
2019-02-20T16:35:23.847Z,8.35
2019-02-20T16:37:52.352Z,8.27
2019-02-20T16:40:21.013Z,8.32
2019-02-20T16:42:49.543Z,8.29
2019-02-20T16:45:21.113Z,8.21
2019-02-20T16:47:49.941Z,8.19
2019-02-20T16:50:18.603Z,8.19
2019-02-20T16:52:47.272Z,8.21
2019-02-20T16:55:19.673Z,8.19
2019-02-20T16:57:56.377Z,8.22
2019-02-20T17:00:21.643Z,8.20
2019-02-20T17:02:50.553Z,8.24
2019-02-20T17:05:19.215Z,8.22
2019-02-20T17:07:47.797Z,8.23
2019-02-20T17:10:16.529Z,8.22
2019-02-20T17:12:45.091Z,8.24
2019-02-20T17:15:15.388Z,8.22
2019-02-20T17:17:43.998Z,8.21
2019-02-20T17:20:15.123Z,8.20
2019-02-20T17:22:43.745Z,8.18
2019-02-20T17:25:13.346Z,8.16
2019-02-20T17:27:41.884Z,8.14
2019-02-20T17:30:13.499Z,8.18
2019-02-20T17:32:44.003Z,8.19
2019-02-20T17:35:14.605Z,8.25
2019-02-20T17:37:43.699Z,8.28
2019-02-20T17:40:13.972Z,8.30
2019-02-20T17:42:42.703Z,8.21
2019-02-20T17:45:14.119Z,8.23
2019-02-20T17:47:43.103Z,8.18
2019-02-20T17:50:39.318Z,8.22
2019-02-20T17:53:07.772Z,8.21
2019-02-20T17:55:37.781Z,8.21
2019-02-20T17:58:14.539Z,8.20
2019-02-20T18:00:37.033Z,8.13
2019-02-20T18:03:05.742Z,8.18
2019-02-20T18:05:34.202Z,8.17
2019-02-20T18:08:02.736Z,8.14
2019-02-20T18:10:31.202Z,8.12
2019-02-20T18:12:59.853Z,8.12
2019-02-20T18:15:30.963Z,8.12
2019-02-20T18:18:03.355Z,8.15
2019-02-20T18:20:31.955Z,8.12
2019-02-20T18:23:01.747Z,8.09
2019-02-20T18:25:33.067Z,8.08
2019-02-20T18:31:26.759Z,8.19
2019-02-20T18:33:58.191Z,8.09
2019-02-20T18:36:28.197Z,8.10
2019-02-20T18:38:58.354Z,8.12
2019-02-20T18:41:26.947Z,8.16
2019-02-20T18:43:55.463Z,8.17
2019-02-20T18:46:23.929Z,8.11
2019-02-20T18:48:52.543Z,8.09
2019-02-20T18:51:21.097Z,8.06
2019-02-20T18:53:49.585Z,8.03
2019-02-20T18:56:18.148Z,7.99
2019-02-20T18:58:47.748Z,7.97
2019-02-20T19:01:16.178Z,8.00
2019-02-20T19:03:44.690Z,8.00
2019-02-20T19:06:13.240Z,8.02
2019-02-20T19:08:47.116Z,7.94
2019-02-20T19:11:33.875Z,7.93
2019-02-20T19:14:24.379Z,8.03
2019-02-20T19:17:17.222Z,7.96
2019-02-20T19:20:10.362Z,7.88
2019-02-20T19:22:49.432Z,7.93
2019-02-20T19:25:37.549Z,7.93
2019-02-20T19:28:20.929Z,7.89
2019-02-20T19:31:14.551Z,7.94
2019-02-20T19:34:00.998Z,7.90
2019-02-20T19:37:02.408Z,7.90
2019-02-20T19:39:39.753Z,7.91
2019-02-20T19:45:45.016Z,7.94
2019-02-20T19:48:44.523Z,7.90
2019-02-20T19:51:30.434Z,7.92
2019-02-20T19:54:18.183Z,7.94
2019-02-20T19:57:04.429Z,8.00
2019-02-20T19:59:55.633Z,7.94
2019-02-20T20:02:38.776Z,7.92
2019-02-20T20:05:16.512Z,7.92
2019-02-20T20:08:06.217Z,7.93
2019-02-20T20:11:09.528Z,7.90
2019-02-20T20:13:46.775Z,7.92
2019-02-20T20:16:26.513Z,7.93
2019-02-20T20:19:04.039Z,7.92
2019-02-20T20:21:59.495Z,7.91
2019-02-20T20:24:40.648Z,7.88
2019-02-20T20:27:21.347Z,7.82
2019-02-20T20:30:09.706Z,7.86
2019-02-20T20:33:02.311Z,7.83
2019-02-20T20:36:08.637Z,7.84
2019-02-20T20:38:46.183Z,7.80
2019-02-20T20:41:20.494Z,7.87
2019-02-20T20:44:27.650Z,7.88
2019-02-20T20:46:59.338Z,7.89
2019-02-20T20:49:33.749Z,7.84
2019-02-20T20:52:23.404Z,7.88
2019-02-20T20:54:54.954Z,7.88
2019-02-20T20:57:29.297Z,7.87
2019-02-20T21:00:15.684Z,7.82
2019-02-20T21:02:47.433Z,7.82
2019-02-20T21:05:21.793Z,7.82
2019-02-20T21:08:02.340Z,7.80
2019-02-20T21:10:51.547Z,7.76
2019-02-20T21:13:23.073Z,7.75
2019-02-20T21:16:15.097Z,7.69
2019-02-20T21:19:01.722Z,7.69
2019-02-20T21:21:48.110Z,7.72
2019-02-20T21:24:22.668Z,7.70
2019-02-20T21:26:57.095Z,7.69
2019-02-20T21:29:37.785Z,7.69
2019-02-20T21:32:32.206Z,7.72
2019-02-20T21:35:09.610Z,7.71
2019-02-20T21:37:56.044Z,7.75
2019-02-20T21:40:33.039Z,7.75
2019-02-20T21:43:30.149Z,7.75
2019-02-20T21:46:16.587Z,7.75
2019-02-20T21:49:04.718Z,7.77
2019-02-20T21:51:38.744Z,7.78
2019-02-20T21:54:27.398Z,7.80
2019-02-20T21:57:16.910Z,7.78
2019-02-20T21:59:54.218Z,7.83
2019-02-20T22:02:25.823Z,7.80
2019-02-20T22:05:18.557Z,7.82
2019-02-20T22:08:05.384Z,7.79
2019-02-20T22:10:45.667Z,7.80
2019-02-20T22:13:32.257Z,7.79
2019-02-20T22:16:15.835Z,7.84
2019-02-20T22:19:05.558Z,7.80
2019-02-20T22:21:56.617Z,7.87
2019-02-20T22:24:50.007Z,7.83
2019-02-20T22:27:33.736Z,7.83
2019-02-20T22:30:14.108Z,7.82
2019-02-20T22:32:45.814Z,7.87
2019-02-20T22:35:29.430Z,7.87
2019-02-20T22:38:43.978Z,7.84
2019-02-20T22:41:24.502Z,7.87
2019-02-20T22:44:10.796Z,7.84
2019-02-20T22:47:05.644Z,7.87
2019-02-20T22:49:43.261Z,7.91
2019-02-20T22:52:14.818Z,7.88
2019-02-20T22:54:55.140Z,7.85
2019-02-20T22:57:51.554Z,7.88
2019-02-20T23:00:56.096Z,7.83
2019-02-20T23:03:39.541Z,7.86
2019-02-20T23:06:33.696Z,7.83
2019-02-20T23:09:31.807Z,7.87
2019-02-20T23:12:37.167Z,7.82
2019-02-20T23:15:07.435Z,7.80
2019-02-20T23:17:35.907Z,7.82
2019-02-20T23:20:06.180Z,7.77
2019-02-20T23:22:34.722Z,7.77
2019-02-20T23:25:03.339Z,7.75
2019-02-20T23:27:31.802Z,7.77
2019-02-20T23:30:00.444Z,7.78
2019-02-20T23:32:28.920Z,7.78
2019-02-20T23:34:57.431Z,7.76
2019-02-20T23:37:25.943Z,7.78
2019-02-20T23:39:54.451Z,7.82
2019-02-20T23:42:22.917Z,7.82
2019-02-20T23:44:51.409Z,7.80
2019-02-20T23:47:19.927Z,7.77
2019-02-20T23:49:48.427Z,7.75
2019-02-20T23:52:16.968Z,7.78
2019-02-20T23:54:45.451Z,7.77
2019-02-20T23:57:14.026Z,7.74
2019-02-20T23:59:42.556Z,7.75
